sensor_id;sensor_type;location;lat;lon;timestamp;temperature;humidity
13231;DHT22;6681;53.254;10.398;2023-05-07T00:00:22;8.90;1.00
13231;DHT22;6681;53.254;10.398;2023-05-07T00:02:48;8.90;1.00
13231;DHT22;6681;53.254;10.398;2023-05-07T00:05:14;8.90;1.00
13231;DHT22;6681;53.254;10.398;2023-05-07T00:07:39;8.90;1.00
13231;DHT22;6681;53.254;10.398;2023-05-07T00:10:10;8.90;1.00
13231;DHT22;6681;53.254;10.398;2023-05-07T00:12:36;8.90;1.00
13231;DHT22;6681;53.254;10.398;2023-05-07T00:15:05;8.90;1.00
13231;DHT22;6681;53.254;10.398;2023-05-07T00:17:32;8.90;1.00
13231;DHT22;6681;53.254;10.398;2023-05-07T00:19:58;8.90;1.00
13231;DHT22;6681;53.254;10.398;2023-05-07T00:22:23;8.90;1.00
13231;DHT22;6681;53.254;10.398;2023-05-07T00:24:49;8.90;1.00
13231;DHT22;6681;53.254;10.398;2023-05-07T00:27:14;8.90;1.00
13231;DHT22;6681;53.254;10.398;2023-05-07T00:29:40;9.00;1.00
13231;DHT22;6681;53.254;10.398;2023-05-07T00:32:06;9.00;1.00
13231;DHT22;6681;53.254;10.398;2023-05-07T00:34:31;9.00;1.00
13231;DHT22;6681;53.254;10.398;2023-05-07T00:36:57;9.00;1.00
13231;DHT22;6681;53.254;10.398;2023-05-07T00:39:22;9.00;1.00
13231;DHT22;6681;53.254;10.398;2023-05-07T00:41:48;9.00;1.00
13231;DHT22;6681;53.254;10.398;2023-05-07T00:44:14;9.30;1.00
13231;DHT22;6681;53.254;10.398;2023-05-07T00:46:40;9.40;1.00
13231;DHT22;6681;53.254;10.398;2023-05-07T00:49:06;9.00;1.00
13231;DHT22;6681;53.254;10.398;2023-05-07T00:51:32;9.00;1.00
13231;DHT22;6681;53.254;10.398;2023-05-07T00:53:59;9.00;1.00
13231;DHT22;6681;53.254;10.398;2023-05-07T00:56:25;9.10;1.00
13231;DHT22;6681;53.254;10.398;2023-05-07T00:58:51;9.10;1.00
13231;DHT22;6681;53.254;10.398;2023-05-07T01:01:16;9.10;1.00
13231;DHT22;6681;53.254;10.398;2023-05-07T01:03:43;9.10;1.00
13231;DHT22;6681;53.254;10.398;2023-05-07T01:06:09;9.10;1.00
13231;DHT22;6681;53.254;10.398;2023-05-07T01:08:38;9.10;1.00
13231;DHT22;6681;53.254;10.398;2023-05-07T01:11:06;9.10;1.00
13231;DHT22;6681;53.254;10.398;2023-05-07T01:13:32;9.40;1.00
13231;DHT22;6681;53.254;10.398;2023-05-07T01:15:59;9.10;1.00
13231;DHT22;6681;53.254;10.398;2023-05-07T01:18:24;9.10;1.00
13231;DHT22;6681;53.254;10.398;2023-05-07T01:20:52;9.10;1.00
13231;DHT22;6681;53.254;10.398;2023-05-07T01:23:18;9.00;1.00
13231;DHT22;6681;53.254;10.398;2023-05-07T01:25:54;9.10;1.00
13231;DHT22;6681;53.254;10.398;2023-05-07T01:28:20;9.00;1.00
13231;DHT22;6681;53.254;10.398;2023-05-07T01:30:58;9.00;1.00
13231;DHT22;6681;53.254;10.398;2023-05-07T01:33:26;9.00;1.00
13231;DHT22;6681;53.254;10.398;2023-05-07T01:35:53;9.00;1.00
13231;DHT22;6681;53.254;10.398;2023-05-07T01:38:21;9.00;1.00
13231;DHT22;6681;53.254;10.398;2023-05-07T01:40:48;9.00;1.00
13231;DHT22;6681;53.254;10.398;2023-05-07T01:43:13;9.00;1.00
13231;DHT22;6681;53.254;10.398;2023-05-07T01:45:40;9.00;1.00
13231;DHT22;6681;53.254;10.398;2023-05-07T01:48:07;9.00;1.00
13231;DHT22;6681;53.254;10.398;2023-05-07T01:50:33;9.10;1.00
13231;DHT22;6681;53.254;10.398;2023-05-07T01:53:01;9.00;1.00
13231;DHT22;6681;53.254;10.398;2023-05-07T01:55:26;9.00;1.00
13231;DHT22;6681;53.254;10.398;2023-05-07T01:57:52;9.00;1.00
13231;DHT22;6681;53.254;10.398;2023-05-07T02:00:18;8.90;1.00
13231;DHT22;6681;53.254;10.398;2023-05-07T02:02:44;9.00;1.00
13231;DHT22;6681;53.254;10.398;2023-05-07T02:05:10;9.00;1.00
13231;DHT22;6681;53.254;10.398;2023-05-07T02:07:35;9.00;1.00
13231;DHT22;6681;53.254;10.398;2023-05-07T02:10:01;9.00;1.00
13231;DHT22;6681;53.254;10.398;2023-05-07T02:12:27;9.00;1.00
13231;DHT22;6681;53.254;10.398;2023-05-07T02:14:52;9.00;1.00
13231;DHT22;6681;53.254;10.398;2023-05-07T02:17:18;9.00;1.00
13231;DHT22;6681;53.254;10.398;2023-05-07T02:19:44;9.00;1.00
13231;DHT22;6681;53.254;10.398;2023-05-07T02:22:09;8.90;1.00
13231;DHT22;6681;53.254;10.398;2023-05-07T02:24:35;8.90;1.00
13231;DHT22;6681;53.254;10.398;2023-05-07T02:27:01;9.00;1.00
13231;DHT22;6681;53.254;10.398;2023-05-07T02:29:27;8.90;1.00
13231;DHT22;6681;53.254;10.398;2023-05-07T02:31:53;8.80;1.00
13231;DHT22;6681;53.254;10.398;2023-05-07T02:34:19;8.90;1.00
13231;DHT22;6681;53.254;10.398;2023-05-07T02:36:44;8.90;1.00
13231;DHT22;6681;53.254;10.398;2023-05-07T02:39:11;8.80;1.00
13231;DHT22;6681;53.254;10.398;2023-05-07T02:41:37;8.80;1.00
13231;DHT22;6681;53.254;10.398;2023-05-07T02:44:03;8.80;1.00
13231;DHT22;6681;53.254;10.398;2023-05-07T02:46:28;8.80;1.00
13231;DHT22;6681;53.254;10.398;2023-05-07T02:48:54;8.80;1.00
13231;DHT22;6681;53.254;10.398;2023-05-07T02:51:21;8.80;1.00
13231;DHT22;6681;53.254;10.398;2023-05-07T02:53:47;8.90;1.00
13231;DHT22;6681;53.254;10.398;2023-05-07T02:56:13;8.90;1.00
13231;DHT22;6681;53.254;10.398;2023-05-07T02:58:38;8.90;1.00
13231;DHT22;6681;53.254;10.398;2023-05-07T03:01:13;8.90;1.00
13231;DHT22;6681;53.254;10.398;2023-05-07T03:03:39;9.00;1.00
13231;DHT22;6681;53.254;10.398;2023-05-07T03:06:05;9.00;1.00
13231;DHT22;6681;53.254;10.398;2023-05-07T03:08:32;8.90;1.00
13231;DHT22;6681;53.254;10.398;2023-05-07T03:10:58;8.90;1.00
13231;DHT22;6681;53.254;10.398;2023-05-07T03:13:23;8.90;1.00
13231;DHT22;6681;53.254;10.398;2023-05-07T03:15:49;8.90;1.00
13231;DHT22;6681;53.254;10.398;2023-05-07T03:18:15;8.90;1.00
13231;DHT22;6681;53.254;10.398;2023-05-07T03:20:40;8.90;1.00
13231;DHT22;6681;53.254;10.398;2023-05-07T03:23:06;8.90;1.00
13231;DHT22;6681;53.254;10.398;2023-05-07T03:25:32;8.90;1.00
13231;DHT22;6681;53.254;10.398;2023-05-07T03:27:57;8.90;1.00
13231;DHT22;6681;53.254;10.398;2023-05-07T03:30:24;8.90;1.00
13231;DHT22;6681;53.254;10.398;2023-05-07T03:32:49;8.90;1.00
13231;DHT22;6681;53.254;10.398;2023-05-07T03:35:15;8.90;1.00
13231;DHT22;6681;53.254;10.398;2023-05-07T03:37:41;8.80;1.00
13231;DHT22;6681;53.254;10.398;2023-05-07T03:40:07;8.90;1.00
13231;DHT22;6681;53.254;10.398;2023-05-07T03:42:33;8.90;1.00
13231;DHT22;6681;53.254;10.398;2023-05-07T03:44:59;8.90;1.00
13231;DHT22;6681;53.254;10.398;2023-05-07T03:47:24;9.00;1.00
13231;DHT22;6681;53.254;10.398;2023-05-07T03:49:50;9.00;1.00
13231;DHT22;6681;53.254;10.398;2023-05-07T03:52:18;9.00;1.00
13231;DHT22;6681;53.254;10.398;2023-05-07T03:54:48;9.00;1.00
13231;DHT22;6681;53.254;10.398;2023-05-07T03:57:13;9.00;1.00
13231;DHT22;6681;53.254;10.398;2023-05-07T03:59:39;8.90;1.00
13231;DHT22;6681;53.254;10.398;2023-05-07T04:02:05;8.90;1.00
13231;DHT22;6681;53.254;10.398;2023-05-07T04:04:30;8.90;1.00
13231;DHT22;6681;53.254;10.398;2023-05-07T04:06:58;9.00;1.00
13231;DHT22;6681;53.254;10.398;2023-05-07T04:09:24;8.90;1.00
13231;DHT22;6681;53.254;10.398;2023-05-07T04:11:50;8.90;1.00
13231;DHT22;6681;53.254;10.398;2023-05-07T04:14:16;8.90;1.00
13231;DHT22;6681;53.254;10.398;2023-05-07T04:16:41;8.80;1.00
13231;DHT22;6681;53.254;10.398;2023-05-07T04:19:07;8.80;1.00
13231;DHT22;6681;53.254;10.398;2023-05-07T04:21:33;8.90;1.00
13231;DHT22;6681;53.254;10.398;2023-05-07T04:24:03;8.90;1.00
13231;DHT22;6681;53.254;10.398;2023-05-07T04:26:29;8.90;1.00
13231;DHT22;6681;53.254;10.398;2023-05-07T04:28:54;8.90;1.00
13231;DHT22;6681;53.254;10.398;2023-05-07T04:31:20;8.90;1.00
13231;DHT22;6681;53.254;10.398;2023-05-07T04:33:46;8.90;1.00
13231;DHT22;6681;53.254;10.398;2023-05-07T04:36:12;8.90;1.00
13231;DHT22;6681;53.254;10.398;2023-05-07T04:38:37;9.00;1.00
13231;DHT22;6681;53.254;10.398;2023-05-07T04:41:04;9.00;1.00
13231;DHT22;6681;53.254;10.398;2023-05-07T04:43:30;9.00;1.00
13231;DHT22;6681;53.254;10.398;2023-05-07T04:45:56;9.00;1.00
13231;DHT22;6681;53.254;10.398;2023-05-07T04:48:22;9.30;1.00
13231;DHT22;6681;53.254;10.398;2023-05-07T04:50:48;9.50;1.00
13231;DHT22;6681;53.254;10.398;2023-05-07T04:53:14;9.00;1.00
13231;DHT22;6681;53.254;10.398;2023-05-07T04:55:39;9.00;1.00
13231;DHT22;6681;53.254;10.398;2023-05-07T04:58:06;9.00;1.00
13231;DHT22;6681;53.254;10.398;2023-05-07T05:00:32;9.00;1.00
13231;DHT22;6681;53.254;10.398;2023-05-07T05:02:58;9.10;1.00
13231;DHT22;6681;53.254;10.398;2023-05-07T05:05:24;9.10;1.00
13231;DHT22;6681;53.254;10.398;2023-05-07T05:07:49;9.10;1.00
13231;DHT22;6681;53.254;10.398;2023-05-07T05:10:17;9.10;1.00
13231;DHT22;6681;53.254;10.398;2023-05-07T05:12:43;9.10;1.00
13231;DHT22;6681;53.254;10.398;2023-05-07T05:15:09;9.40;1.00
13231;DHT22;6681;53.254;10.398;2023-05-07T05:17:35;9.10;1.00
13231;DHT22;6681;53.254;10.398;2023-05-07T05:20:02;9.00;1.00
13231;DHT22;6681;53.254;10.398;2023-05-07T05:22:31;9.10;1.00
13231;DHT22;6681;53.254;10.398;2023-05-07T05:24:57;9.10;1.00
13231;DHT22;6681;53.254;10.398;2023-05-07T05:27:22;9.10;1.00
13231;DHT22;6681;53.254;10.398;2023-05-07T05:29:48;9.10;1.00
13231;DHT22;6681;53.254;10.398;2023-05-07T05:32:14;9.10;1.00
13231;DHT22;6681;53.254;10.398;2023-05-07T05:34:39;9.20;1.00
13231;DHT22;6681;53.254;10.398;2023-05-07T05:37:05;9.10;1.00
13231;DHT22;6681;53.254;10.398;2023-05-07T05:39:30;9.20;1.00
13231;DHT22;6681;53.254;10.398;2023-05-07T05:41:56;9.20;1.00
13231;DHT22;6681;53.254;10.398;2023-05-07T05:44:22;9.20;1.00
13231;DHT22;6681;53.254;10.398;2023-05-07T05:46:47;9.30;1.00
13231;DHT22;6681;53.254;10.398;2023-05-07T05:49:15;9.30;1.00
13231;DHT22;6681;53.254;10.398;2023-05-07T05:51:40;9.30;1.00
13231;DHT22;6681;53.254;10.398;2023-05-07T05:54:06;9.30;1.00
13231;DHT22;6681;53.254;10.398;2023-05-07T05:56:32;9.30;1.00
13231;DHT22;6681;53.254;10.398;2023-05-07T05:58:58;9.30;1.00
13231;DHT22;6681;53.254;10.398;2023-05-07T06:01:23;9.30;1.00
13231;DHT22;6681;53.254;10.398;2023-05-07T06:03:49;9.30;1.00
13231;DHT22;6681;53.254;10.398;2023-05-07T06:06:15;9.30;1.00
13231;DHT22;6681;53.254;10.398;2023-05-07T06:08:41;9.40;1.00
13231;DHT22;6681;53.254;10.398;2023-05-07T06:11:07;9.50;1.00
13231;DHT22;6681;53.254;10.398;2023-05-07T06:13:32;9.50;1.00
13231;DHT22;6681;53.254;10.398;2023-05-07T06:15:58;9.50;1.00
13231;DHT22;6681;53.254;10.398;2023-05-07T06:18:24;9.50;1.00
13231;DHT22;6681;53.254;10.398;2023-05-07T06:20:51;9.50;1.00
13231;DHT22;6681;53.254;10.398;2023-05-07T06:23:17;9.50;1.00
13231;DHT22;6681;53.254;10.398;2023-05-07T06:25:48;9.50;1.00
13231;DHT22;6681;53.254;10.398;2023-05-07T06:28:13;9.50;1.00
13231;DHT22;6681;53.254;10.398;2023-05-07T06:30:39;9.50;1.00
13231;DHT22;6681;53.254;10.398;2023-05-07T06:33:05;9.50;1.00
13231;DHT22;6681;53.254;10.398;2023-05-07T06:35:31;9.50;1.00
13231;DHT22;6681;53.254;10.398;2023-05-07T06:37:57;9.50;1.00
13231;DHT22;6681;53.254;10.398;2023-05-07T06:40:22;9.50;1.00
13231;DHT22;6681;53.254;10.398;2023-05-07T06:42:48;9.50;1.00
13231;DHT22;6681;53.254;10.398;2023-05-07T06:45:13;9.50;1.00
13231;DHT22;6681;53.254;10.398;2023-05-07T06:47:39;9.60;1.00
13231;DHT22;6681;53.254;10.398;2023-05-07T06:50:05;9.60;1.00
13231;DHT22;6681;53.254;10.398;2023-05-07T06:52:31;9.60;1.00
13231;DHT22;6681;53.254;10.398;2023-05-07T06:54:57;10.00;1.00
13231;DHT22;6681;53.254;10.398;2023-05-07T06:57:23;9.70;1.00
13231;DHT22;6681;53.254;10.398;2023-05-07T06:59:49;9.70;1.00
13231;DHT22;6681;53.254;10.398;2023-05-07T07:02:15;9.70;1.00
13231;DHT22;6681;53.254;10.398;2023-05-07T07:04:40;9.70;1.00
13231;DHT22;6681;53.254;10.398;2023-05-07T07:07:07;9.70;1.00
13231;DHT22;6681;53.254;10.398;2023-05-07T07:09:32;9.80;1.00
13231;DHT22;6681;53.254;10.398;2023-05-07T07:11:58;9.80;1.00
13231;DHT22;6681;53.254;10.398;2023-05-07T07:14:24;9.80;1.00
13231;DHT22;6681;53.254;10.398;2023-05-07T07:16:49;9.90;1.00
13231;DHT22;6681;53.254;10.398;2023-05-07T07:19:15;9.90;1.00
13231;DHT22;6681;53.254;10.398;2023-05-07T07:21:49;9.80;1.00
13231;DHT22;6681;53.254;10.398;2023-05-07T07:24:15;9.80;1.00
13231;DHT22;6681;53.254;10.398;2023-05-07T07:26:44;9.90;1.00
13231;DHT22;6681;53.254;10.398;2023-05-07T07:29:10;9.90;1.00
13231;DHT22;6681;53.254;10.398;2023-05-07T07:31:36;9.90;1.00
13231;DHT22;6681;53.254;10.398;2023-05-07T07:34:01;9.90;1.00
13231;DHT22;6681;53.254;10.398;2023-05-07T07:36:27;10.20;1.00
13231;DHT22;6681;53.254;10.398;2023-05-07T07:38:54;10.00;1.00
13231;DHT22;6681;53.254;10.398;2023-05-07T07:41:19;10.00;1.00
13231;DHT22;6681;53.254;10.398;2023-05-07T07:43:45;10.00;1.00
13231;DHT22;6681;53.254;10.398;2023-05-07T07:46:12;10.00;1.00
13231;DHT22;6681;53.254;10.398;2023-05-07T07:48:37;10.00;1.00
13231;DHT22;6681;53.254;10.398;2023-05-07T07:51:03;10.00;1.00
13231;DHT22;6681;53.254;10.398;2023-05-07T07:53:29;10.10;1.00
13231;DHT22;6681;53.254;10.398;2023-05-07T07:55:55;10.10;1.00
13231;DHT22;6681;53.254;10.398;2023-05-07T07:58:21;10.20;1.00
13231;DHT22;6681;53.254;10.398;2023-05-07T08:00:47;10.10;1.00
13231;DHT22;6681;53.254;10.398;2023-05-07T08:03:13;10.10;1.00
13231;DHT22;6681;53.254;10.398;2023-05-07T08:05:39;10.20;1.00
13231;DHT22;6681;53.254;10.398;2023-05-07T08:08:05;10.20;1.00
13231;DHT22;6681;53.254;10.398;2023-05-07T08:10:31;10.20;1.00
13231;DHT22;6681;53.254;10.398;2023-05-07T08:13:00;10.30;1.00
13231;DHT22;6681;53.254;10.398;2023-05-07T08:15:26;10.30;1.00
13231;DHT22;6681;53.254;10.398;2023-05-07T08:17:51;10.20;1.00
13231;DHT22;6681;53.254;10.398;2023-05-07T08:20:17;10.30;1.00
13231;DHT22;6681;53.254;10.398;2023-05-07T08:22:43;10.30;1.00
13231;DHT22;6681;53.254;10.398;2023-05-07T08:25:09;10.30;1.00
13231;DHT22;6681;53.254;10.398;2023-05-07T08:27:34;10.40;1.00
13231;DHT22;6681;53.254;10.398;2023-05-07T08:30:00;10.30;1.00
13231;DHT22;6681;53.254;10.398;2023-05-07T08:32:26;10.30;1.00
13231;DHT22;6681;53.254;10.398;2023-05-07T08:34:52;10.30;1.00
13231;DHT22;6681;53.254;10.398;2023-05-07T08:37:17;10.40;1.00
13231;DHT22;6681;53.254;10.398;2023-05-07T08:39:43;10.40;1.00
13231;DHT22;6681;53.254;10.398;2023-05-07T08:42:09;10.50;1.00
13231;DHT22;6681;53.254;10.398;2023-05-07T08:44:38;10.50;1.00
13231;DHT22;6681;53.254;10.398;2023-05-07T08:47:06;10.60;1.00
13231;DHT22;6681;53.254;10.398;2023-05-07T08:49:33;10.60;1.00
13231;DHT22;6681;53.254;10.398;2023-05-07T08:51:59;10.60;1.00
13231;DHT22;6681;53.254;10.398;2023-05-07T08:54:26;10.70;1.00
13231;DHT22;6681;53.254;10.398;2023-05-07T08:56:53;10.70;1.00
13231;DHT22;6681;53.254;10.398;2023-05-07T08:59:18;10.70;1.00
13231;DHT22;6681;53.254;10.398;2023-05-07T09:01:44;10.70;1.00
13231;DHT22;6681;53.254;10.398;2023-05-07T09:04:12;10.60;1.00
13231;DHT22;6681;53.254;10.398;2023-05-07T09:06:38;10.70;1.00
13231;DHT22;6681;53.254;10.398;2023-05-07T09:09:07;10.70;1.00
13231;DHT22;6681;53.254;10.398;2023-05-07T09:11:33;10.70;1.00
13231;DHT22;6681;53.254;10.398;2023-05-07T09:13:58;10.60;1.00
13231;DHT22;6681;53.254;10.398;2023-05-07T09:16:29;10.60;1.00
13231;DHT22;6681;53.254;10.398;2023-05-07T09:18:58;10.60;1.00
13231;DHT22;6681;53.254;10.398;2023-05-07T09:21:25;10.60;1.00
13231;DHT22;6681;53.254;10.398;2023-05-07T09:23:51;10.70;1.00
13231;DHT22;6681;53.254;10.398;2023-05-07T09:26:18;10.90;1.00
13231;DHT22;6681;53.254;10.398;2023-05-07T09:28:44;11.00;1.00
13231;DHT22;6681;53.254;10.398;2023-05-07T09:31:10;11.00;1.00
13231;DHT22;6681;53.254;10.398;2023-05-07T09:33:37;10.90;1.00
13231;DHT22;6681;53.254;10.398;2023-05-07T09:36:04;10.90;1.00
13231;DHT22;6681;53.254;10.398;2023-05-07T09:38:31;11.00;1.00
13231;DHT22;6681;53.254;10.398;2023-05-07T09:41:05;11.00;1.00
13231;DHT22;6681;53.254;10.398;2023-05-07T09:43:32;11.10;1.00
13231;DHT22;6681;53.254;10.398;2023-05-07T09:46:03;11.10;1.00
13231;DHT22;6681;53.254;10.398;2023-05-07T09:48:29;11.10;1.00
13231;DHT22;6681;53.254;10.398;2023-05-07T09:50:55;11.20;1.00
13231;DHT22;6681;53.254;10.398;2023-05-07T09:53:24;11.10;1.00
13231;DHT22;6681;53.254;10.398;2023-05-07T09:55:51;11.20;1.00
13231;DHT22;6681;53.254;10.398;2023-05-07T09:58:18;11.10;1.00
13231;DHT22;6681;53.254;10.398;2023-05-07T10:00:44;11.10;1.00
13231;DHT22;6681;53.254;10.398;2023-05-07T10:03:11;11.00;1.00
13231;DHT22;6681;53.254;10.398;2023-05-07T10:05:38;11.10;1.00
13231;DHT22;6681;53.254;10.398;2023-05-07T10:08:05;11.10;1.00
13231;DHT22;6681;53.254;10.398;2023-05-07T10:10:32;11.10;1.00
13231;DHT22;6681;53.254;10.398;2023-05-07T10:12:59;11.50;1.00
13231;DHT22;6681;53.254;10.398;2023-05-07T10:15:24;11.10;99.90
13231;DHT22;6681;53.254;10.398;2023-05-07T10:17:51;11.20;1.00
13231;DHT22;6681;53.254;10.398;2023-05-07T10:20:18;11.20;1.00
13231;DHT22;6681;53.254;10.398;2023-05-07T10:22:46;11.30;1.00
13231;DHT22;6681;53.254;10.398;2023-05-07T10:25:17;11.40;1.00
13231;DHT22;6681;53.254;10.398;2023-05-07T10:27:45;11.40;99.90
13231;DHT22;6681;53.254;10.398;2023-05-07T10:31:01;11.50;1.00
13231;DHT22;6681;53.254;10.398;2023-05-07T10:33:09;11.50;99.90
13231;DHT22;6681;53.254;10.398;2023-05-07T10:35:41;11.60;99.90
13231;DHT22;6681;53.254;10.398;2023-05-07T10:38:08;11.60;99.90
13231;DHT22;6681;53.254;10.398;2023-05-07T10:40:34;11.60;99.90
13231;DHT22;6681;53.254;10.398;2023-05-07T10:43:04;11.60;99.90
13231;DHT22;6681;53.254;10.398;2023-05-07T10:45:31;11.60;1.00
13231;DHT22;6681;53.254;10.398;2023-05-07T10:48:11;11.70;99.90
13231;DHT22;6681;53.254;10.398;2023-05-07T10:50:39;11.80;99.90
13231;DHT22;6681;53.254;10.398;2023-05-07T10:55:43;11.60;99.90
13231;DHT22;6681;53.254;10.398;2023-05-07T11:00:47;11.60;99.90
13231;DHT22;6681;53.254;10.398;2023-05-07T11:03:13;11.70;99.90
13231;DHT22;6681;53.254;10.398;2023-05-07T11:05:41;11.70;99.90
13231;DHT22;6681;53.254;10.398;2023-05-07T11:08:07;11.70;99.90
13231;DHT22;6681;53.254;10.398;2023-05-07T11:10:51;11.80;99.90
13231;DHT22;6681;53.254;10.398;2023-05-07T11:13:18;11.90;99.90
13231;DHT22;6681;53.254;10.398;2023-05-07T11:15:46;12.00;99.90
13231;DHT22;6681;53.254;10.398;2023-05-07T11:18:14;12.00;99.90
13231;DHT22;6681;53.254;10.398;2023-05-07T11:20:57;12.10;99.90
13231;DHT22;6681;53.254;10.398;2023-05-07T11:26:06;12.30;64.40
13231;DHT22;6681;53.254;10.398;2023-05-07T11:28:37;12.40;1.00
13231;DHT22;6681;53.254;10.398;2023-05-07T11:31:04;12.50;1.00
13231;DHT22;6681;53.254;10.398;2023-05-07T11:33:33;12.60;1.00
13231;DHT22;6681;53.254;10.398;2023-05-07T11:36:00;12.70;1.00
13231;DHT22;6681;53.254;10.398;2023-05-07T11:38:26;12.80;99.90
13231;DHT22;6681;53.254;10.398;2023-05-07T11:40:58;12.80;1.00
13231;DHT22;6681;53.254;10.398;2023-05-07T11:43:28;13.00;99.90
13231;DHT22;6681;53.254;10.398;2023-05-07T11:45:53;13.10;1.00
13231;DHT22;6681;53.254;10.398;2023-05-07T11:48:21;13.10;99.90
13231;DHT22;6681;53.254;10.398;2023-05-07T11:53:26;13.30;99.90
13231;DHT22;6681;53.254;10.398;2023-05-07T11:55:52;13.10;99.90
13231;DHT22;6681;53.254;10.398;2023-05-07T11:58:22;13.10;99.90
13231;DHT22;6681;53.254;10.398;2023-05-07T12:00:49;13.20;1.00
13231;DHT22;6681;53.254;10.398;2023-05-07T12:03:15;13.30;38.10
13231;DHT22;6681;53.254;10.398;2023-05-07T12:05:40;13.20;99.90
13231;DHT22;6681;53.254;10.398;2023-05-07T12:08:07;13.30;1.00
13231;DHT22;6681;53.254;10.398;2023-05-07T12:10:33;13.30;1.00
13231;DHT22;6681;53.254;10.398;2023-05-07T12:12:58;13.30;40.90
13231;DHT22;6681;53.254;10.398;2023-05-07T12:15:24;13.40;99.90
13231;DHT22;6681;53.254;10.398;2023-05-07T12:17:50;13.40;99.90
13231;DHT22;6681;53.254;10.398;2023-05-07T12:20:18;13.60;1.00
13231;DHT22;6681;53.254;10.398;2023-05-07T12:22:44;13.70;99.90
13231;DHT22;6681;53.254;10.398;2023-05-07T12:25:09;13.70;99.90
13231;DHT22;6681;53.254;10.398;2023-05-07T12:27:37;13.60;99.90
13231;DHT22;6681;53.254;10.398;2023-05-07T12:30:04;13.50;99.90
13231;DHT22;6681;53.254;10.398;2023-05-07T12:32:31;13.80;1.00
13231;DHT22;6681;53.254;10.398;2023-05-07T12:35:01;14.10;1.00
13231;DHT22;6681;53.254;10.398;2023-05-07T12:37:27;14.40;1.00
13231;DHT22;6681;53.254;10.398;2023-05-07T12:40:09;14.60;1.00
13231;DHT22;6681;53.254;10.398;2023-05-07T12:42:36;15.10;1.00
13231;DHT22;6681;53.254;10.398;2023-05-07T12:45:12;15.30;1.00
13231;DHT22;6681;53.254;10.398;2023-05-07T12:47:38;15.20;99.90
13231;DHT22;6681;53.254;10.398;2023-05-07T12:50:07;15.10;99.90
13231;DHT22;6681;53.254;10.398;2023-05-07T12:52:34;15.00;1.00
13231;DHT22;6681;53.254;10.398;2023-05-07T12:55:09;15.20;1.00
13231;DHT22;6681;53.254;10.398;2023-05-07T12:57:50;15.50;99.90
13231;DHT22;6681;53.254;10.398;2023-05-07T13:00:17;15.90;1.00
13231;DHT22;6681;53.254;10.398;2023-05-07T13:02:43;16.00;99.90
13231;DHT22;6681;53.254;10.398;2023-05-07T13:05:12;15.80;1.00
13231;DHT22;6681;53.254;10.398;2023-05-07T13:07:38;15.60;99.90
13231;DHT22;6681;53.254;10.398;2023-05-07T13:10:04;15.90;1.00
13231;DHT22;6681;53.254;10.398;2023-05-07T13:12:30;16.20;1.00
13231;DHT22;6681;53.254;10.398;2023-05-07T13:14:56;16.20;99.90
13231;DHT22;6681;53.254;10.398;2023-05-07T13:17:21;16.40;1.00
13231;DHT22;6681;53.254;10.398;2023-05-07T13:19:47;16.60;1.00
13231;DHT22;6681;53.254;10.398;2023-05-07T13:22:12;16.70;19.60
13231;DHT22;6681;53.254;10.398;2023-05-07T13:24:38;16.70;1.00
13231;DHT22;6681;53.254;10.398;2023-05-07T13:27:06;16.60;1.00
13231;DHT22;6681;53.254;10.398;2023-05-07T13:29:32;16.60;1.00
13231;DHT22;6681;53.254;10.398;2023-05-07T13:31:58;16.80;1.00
13231;DHT22;6681;53.254;10.398;2023-05-07T13:34:24;16.90;1.00
13231;DHT22;6681;53.254;10.398;2023-05-07T13:36:49;17.00;99.90
13231;DHT22;6681;53.254;10.398;2023-05-07T13:39:15;17.10;68.60
13231;DHT22;6681;53.254;10.398;2023-05-07T13:41:41;17.20;3.40
13231;DHT22;6681;53.254;10.398;2023-05-07T13:44:07;17.40;1.00
13231;DHT22;6681;53.254;10.398;2023-05-07T13:46:32;17.40;1.00
13231;DHT22;6681;53.254;10.398;2023-05-07T13:48:58;16.90;1.00
13231;DHT22;6681;53.254;10.398;2023-05-07T13:51:24;16.50;1.00
13231;DHT22;6681;53.254;10.398;2023-05-07T13:53:49;16.70;99.90
13231;DHT22;6681;53.254;10.398;2023-05-07T13:56:18;16.70;1.00
13231;DHT22;6681;53.254;10.398;2023-05-07T13:58:43;16.80;99.90
13231;DHT22;6681;53.254;10.398;2023-05-07T14:01:09;16.60;1.00
13231;DHT22;6681;53.254;10.398;2023-05-07T14:03:34;16.50;1.00
13231;DHT22;6681;53.254;10.398;2023-05-07T14:06:03;16.60;1.00
13231;DHT22;6681;53.254;10.398;2023-05-07T14:08:29;16.60;99.90
13231;DHT22;6681;53.254;10.398;2023-05-07T14:10:55;16.70;99.90
13231;DHT22;6681;53.254;10.398;2023-05-07T14:13:20;16.90;55.20
13231;DHT22;6681;53.254;10.398;2023-05-07T14:15:46;17.00;1.00
13231;DHT22;6681;53.254;10.398;2023-05-07T14:18:13;16.90;1.00
13231;DHT22;6681;53.254;10.398;2023-05-07T14:20:39;17.00;99.90
13231;DHT22;6681;53.254;10.398;2023-05-07T14:23:05;17.20;1.00
13231;DHT22;6681;53.254;10.398;2023-05-07T14:25:30;17.20;99.90
13231;DHT22;6681;53.254;10.398;2023-05-07T14:27:56;17.30;1.00
13231;DHT22;6681;53.254;10.398;2023-05-07T14:30:21;17.30;99.90
13231;DHT22;6681;53.254;10.398;2023-05-07T14:32:50;17.60;1.00
13231;DHT22;6681;53.254;10.398;2023-05-07T14:35:16;17.90;99.90
13231;DHT22;6681;53.254;10.398;2023-05-07T14:37:41;18.00;99.90
13231;DHT22;6681;53.254;10.398;2023-05-07T14:40:07;18.30;38.80
13231;DHT22;6681;53.254;10.398;2023-05-07T14:42:33;18.60;1.00
13231;DHT22;6681;53.254;10.398;2023-05-07T14:44:59;18.30;1.00
13231;DHT22;6681;53.254;10.398;2023-05-07T14:47:24;18.60;1.00
13231;DHT22;6681;53.254;10.398;2023-05-07T14:49:50;18.70;99.90
13231;DHT22;6681;53.254;10.398;2023-05-07T14:52:16;18.90;1.00
13231;DHT22;6681;53.254;10.398;2023-05-07T14:54:42;18.40;1.00
13231;DHT22;6681;53.254;10.398;2023-05-07T14:57:08;18.40;63.20
13231;DHT22;6681;53.254;10.398;2023-05-07T14:59:35;18.40;1.00
13231;DHT22;6681;53.254;10.398;2023-05-07T15:02:01;18.90;1.00
13231;DHT22;6681;53.254;10.398;2023-05-07T15:04:27;18.90;1.00
13231;DHT22;6681;53.254;10.398;2023-05-07T15:06:52;18.80;99.90
13231;DHT22;6681;53.254;10.398;2023-05-07T15:09:21;19.20;1.00
13231;DHT22;6681;53.254;10.398;2023-05-07T15:11:47;19.20;27.70
13231;DHT22;6681;53.254;10.398;2023-05-07T15:14:12;19.00;1.00
13231;DHT22;6681;53.254;10.398;2023-05-07T15:16:40;18.50;1.00
13231;DHT22;6681;53.254;10.398;2023-05-07T15:19:06;18.30;1.00
13231;DHT22;6681;53.254;10.398;2023-05-07T15:21:32;18.50;1.00
13231;DHT22;6681;53.254;10.398;2023-05-07T15:24:00;18.50;1.00
13231;DHT22;6681;53.254;10.398;2023-05-07T15:26:26;18.70;1.00
13231;DHT22;6681;53.254;10.398;2023-05-07T15:28:51;18.90;99.90
13231;DHT22;6681;53.254;10.398;2023-05-07T15:31:17;19.00;1.00
13231;DHT22;6681;53.254;10.398;2023-05-07T15:33:43;18.70;99.90
13231;DHT22;6681;53.254;10.398;2023-05-07T15:36:10;18.20;1.00
13231;DHT22;6681;53.254;10.398;2023-05-07T15:38:36;18.10;99.90
13231;DHT22;6681;53.254;10.398;2023-05-07T15:41:02;18.30;1.00
13231;DHT22;6681;53.254;10.398;2023-05-07T15:43:28;18.40;99.90
13231;DHT22;6681;53.254;10.398;2023-05-07T15:45:53;18.50;1.00
13231;DHT22;6681;53.254;10.398;2023-05-07T15:48:19;18.30;1.00
13231;DHT22;6681;53.254;10.398;2023-05-07T15:50:45;18.00;1.00
13231;DHT22;6681;53.254;10.398;2023-05-07T15:53:11;17.80;99.90
13231;DHT22;6681;53.254;10.398;2023-05-07T15:55:39;17.60;99.90